createdAt,value
2017-09-27T00:00:21.377Z,9.93
2017-09-27T00:02:50.843Z,7.70
2017-09-27T00:05:23.383Z,6.67
2017-09-27T00:07:52.939Z,11.60
2017-09-27T00:10:22.376Z,4.53
2017-09-27T00:12:51.837Z,5.23
2017-09-27T00:15:21.255Z,11.73
2017-09-27T00:17:58.127Z,10.27
2017-09-27T00:20:27.562Z,4.47
2017-09-27T00:22:57.206Z,4.67
2017-09-27T00:25:26.604Z,9.83
2017-09-27T00:27:56.052Z,8.33
2017-09-27T00:30:31.600Z,7.67
2017-09-27T00:33:01.040Z,11.90
2017-09-27T00:35:30.529Z,4.57
2017-09-27T00:38:01.154Z,5.87
2017-09-27T00:40:30.577Z,7.30
2017-09-27T00:43:00.008Z,9.17
2017-09-27T00:45:29.456Z,5.70
2017-09-27T00:47:58.867Z,6.00
2017-09-27T00:50:28.525Z,9.33
2017-09-27T00:52:57.926Z,9.83
2017-09-27T00:55:27.405Z,8.97
2017-09-27T00:58:02.919Z,9.10
2017-09-27T01:00:32.408Z,10.57
2017-09-27T01:03:01.877Z,8.07
2017-09-27T01:05:31.325Z,9.23
2017-09-27T01:08:08.078Z,8.97
2017-09-27T01:10:37.557Z,6.37
2017-09-27T01:13:07.021Z,9.13
2017-09-27T01:15:36.462Z,11.20
2017-09-27T01:18:05.924Z,14.23
2017-09-27T01:20:35.382Z,4.97
2017-09-27T01:23:12.499Z,5.37
2017-09-27T01:25:41.933Z,5.60
2017-09-27T01:28:11.411Z,10.40
2017-09-27T01:30:40.996Z,9.33
2017-09-27T01:33:23.429Z,6.90
2017-09-27T01:35:53.166Z,9.30
2017-09-27T01:38:22.771Z,7.57
2017-09-27T01:40:53.021Z,7.23
2017-09-27T01:43:34.045Z,7.30
2017-09-27T01:46:04.729Z,7.57
2017-09-27T01:48:40.637Z,14.27
2017-09-27T01:51:10.194Z,6.20
2017-09-27T01:53:39.769Z,8.00
2017-09-27T01:56:10.222Z,6.50
2017-09-27T01:58:39.943Z,9.70
2017-09-27T02:01:09.410Z,5.93
2017-09-27T02:03:39.090Z,6.60
2017-09-27T02:06:08.708Z,8.07
2017-09-27T02:08:38.142Z,10.93
2017-09-27T02:11:23.069Z,10.63
2017-09-27T02:13:52.609Z,9.07
2017-09-27T02:16:22.173Z,9.97
2017-09-27T02:18:58.753Z,8.63
2017-09-27T02:21:28.257Z,5.30
2017-09-27T02:23:58.533Z,7.50
2017-09-27T02:26:28.015Z,4.70
2017-09-27T02:29:10.657Z,15.40
2017-09-27T02:31:40.095Z,5.33
2017-09-27T02:34:09.648Z,11.90
2017-09-27T02:36:40.543Z,8.20
2017-09-27T02:39:10.156Z,8.60
2017-09-27T02:41:39.737Z,7.80
2017-09-27T02:44:09.408Z,6.73
2017-09-27T02:46:38.990Z,9.07
2017-09-27T02:49:08.417Z,8.73
2017-09-27T02:51:53.257Z,8.70
2017-09-27T02:54:23.455Z,11.60
2017-09-27T02:56:53.064Z,11.63
2017-09-27T02:59:22.674Z,7.80
2017-09-27T03:01:52.335Z,6.87
2017-09-27T03:04:21.880Z,5.17
2017-09-27T03:06:51.296Z,9.43
2017-09-27T03:09:20.741Z,33.87
2017-09-27T03:11:50.173Z,12.87
2017-09-27T03:14:27.757Z,25.27
2017-09-27T03:16:57.187Z,9.63
2017-09-27T03:19:26.610Z,13.23
2017-09-27T03:21:56.093Z,7.67
2017-09-27T03:24:25.633Z,9.00
2017-09-27T03:26:55.046Z,8.10
2017-09-27T03:29:38.921Z,12.93
2017-09-27T03:32:08.375Z,8.30
2017-09-27T03:34:37.809Z,5.50
2017-09-27T03:37:21.022Z,10.93
2017-09-27T03:39:50.436Z,8.10
2017-09-27T03:42:19.909Z,6.67
2017-09-27T03:44:49.349Z,12.93
2017-09-27T03:47:18.742Z,13.20
2017-09-27T03:49:48.170Z,10.17
2017-09-27T03:52:17.605Z,7.17
2017-09-27T03:54:47.053Z,16.40
2017-09-27T03:57:16.577Z,27.13
2017-09-27T03:59:46.035Z,27.67
2017-09-27T04:02:18.466Z,20.43
2017-09-27T04:04:47.905Z,22.87
2017-09-27T04:07:17.946Z,21.47
2017-09-27T04:09:56.919Z,16.03
2017-09-27T04:12:26.367Z,51.83
2017-09-27T04:14:55.806Z,152.47
2017-09-27T04:17:25.247Z,234.43
2017-09-27T04:19:54.702Z,215.37
2017-09-27T04:22:24.182Z,382.60
2017-09-27T04:24:53.613Z,311.03
2017-09-27T04:27:23.063Z,224.30
2017-09-27T04:29:52.823Z,409.13
2017-09-27T04:32:22.278Z,347.67
2017-09-27T04:34:51.843Z,278.50
2017-09-27T04:37:21.245Z,177.70
2017-09-27T04:39:50.660Z,164.43
2017-09-27T04:42:20.162Z,153.33
2017-09-27T04:44:49.645Z,150.50
2017-09-27T04:47:20.647Z,164.27
2017-09-27T04:50:03.880Z,269.90
2017-09-27T04:52:33.322Z,260.27
2017-09-27T04:55:02.731Z,265.20
2017-09-27T04:57:32.202Z,217.00
2017-09-27T05:00:07.718Z,253.97
2017-09-27T05:02:37.220Z,190.40
2017-09-27T05:05:14.850Z,302.20
2017-09-27T05:07:44.308Z,181.67
2017-09-27T05:10:27.001Z,175.93
2017-09-27T05:12:56.558Z,178.80
2017-09-27T05:15:26.003Z,159.03
2017-09-27T05:17:55.443Z,164.53
2017-09-27T05:20:36.911Z,260.43
2017-09-27T05:23:06.326Z,174.27
2017-09-27T05:25:37.513Z,334.20
2017-09-27T05:28:06.946Z,287.13
2017-09-27T05:30:36.359Z,270.10
2017-09-27T05:33:05.868Z,220.03
2017-09-27T05:35:35.289Z,309.90
2017-09-27T05:38:04.707Z,282.20
2017-09-27T05:40:34.103Z,281.30
2017-09-27T05:43:03.557Z,322.13
2017-09-27T05:45:34.507Z,234.37
2017-09-27T05:48:11.266Z,246.60
2017-09-27T05:50:55.461Z,218.83
2017-09-27T05:53:24.878Z,174.80
2017-09-27T05:55:54.287Z,153.30
2017-09-27T05:58:23.773Z,176.30
2017-09-27T06:00:53.219Z,150.87
2017-09-27T06:03:22.630Z,137.80
2017-09-27T06:05:52.110Z,119.50
2017-09-27T06:08:21.590Z,124.27
2017-09-27T06:10:51.021Z,91.83
2017-09-27T06:13:20.436Z,101.57
2017-09-27T06:15:50.092Z,183.63
2017-09-27T06:18:20.629Z,148.27
2017-09-27T06:20:50.657Z,193.20
2017-09-27T06:23:20.094Z,208.90
2017-09-27T06:26:00.390Z,239.77
2017-09-27T06:28:43.229Z,217.70
2017-09-27T06:31:12.790Z,204.17
2017-09-27T06:33:42.287Z,181.90
2017-09-27T06:36:11.814Z,170.80
2017-09-27T06:38:41.292Z,176.97
2017-09-27T06:41:10.770Z,217.47
2017-09-27T06:43:40.225Z,183.30
2017-09-27T06:46:10.289Z,237.00
2017-09-27T06:48:45.987Z,229.57
2017-09-27T06:51:15.407Z,186.20
2017-09-27T06:53:51.275Z,195.83
2017-09-27T06:56:26.859Z,155.67
2017-09-27T06:58:57.668Z,205.03
2017-09-27T07:01:27.151Z,224.83
2017-09-27T07:03:57.177Z,246.90
2017-09-27T07:06:26.803Z,206.53
2017-09-27T07:08:56.277Z,125.63
2017-09-27T07:11:26.820Z,163.37
2017-09-27T07:13:56.229Z,85.53
2017-09-27T07:16:25.749Z,103.53
2017-09-27T07:18:55.180Z,89.20
2017-09-27T07:21:25.041Z,50.03
2017-09-27T07:23:54.809Z,27.43
2017-09-27T07:26:24.310Z,18.50
2017-09-27T07:28:53.783Z,12.33
2017-09-27T07:31:23.295Z,18.43
2017-09-27T07:33:59.581Z,6.00
2017-09-27T07:36:28.992Z,13.97
2017-09-27T07:38:58.423Z,16.03
2017-09-27T07:41:28.029Z,11.73
2017-09-27T07:43:57.448Z,10.63
2017-09-27T07:46:26.992Z,14.00
2017-09-27T07:49:03.174Z,12.53
2017-09-27T07:51:33.231Z,9.30
2017-09-27T07:54:02.625Z,21.10
2017-09-27T07:56:32.112Z,19.87
2017-09-27T07:59:10.138Z,14.57
2017-09-27T08:01:39.779Z,13.50
2017-09-27T08:04:09.221Z,12.30
2017-09-27T08:06:38.620Z,12.40
2017-09-27T08:09:15.545Z,12.70
2017-09-27T08:11:44.991Z,7.73
2017-09-27T08:14:14.395Z,18.70
2017-09-27T08:16:50.174Z,6.93
2017-09-27T08:19:19.752Z,16.93
2017-09-27T08:21:49.194Z,9.43
2017-09-27T08:24:19.334Z,9.47
2017-09-27T08:26:48.993Z,12.77
2017-09-27T08:29:18.981Z,14.83
2017-09-27T08:31:48.491Z,9.40
2017-09-27T08:34:18.029Z,13.13
2017-09-27T08:36:47.409Z,6.60
2017-09-27T08:39:17.533Z,11.57
2017-09-27T08:41:47.520Z,10.40
2017-09-27T08:44:17.083Z,10.37
2017-09-27T08:46:46.526Z,12.53
2017-09-27T08:49:15.955Z,10.83
2017-09-27T08:51:45.659Z,14.07
2017-09-27T16:42:15.485Z,5.80
2017-09-27T16:44:43.510Z,5.20
2017-09-27T16:47:13.315Z,61.80
2017-09-27T16:49:54.692Z,28.70
2017-09-27T16:55:48.365Z,6.27
2017-09-27T16:58:17.966Z,7.47
2017-09-27T17:00:59.529Z,6.40
2017-09-27T17:03:29.795Z,8.40
2017-09-27T17:06:14.453Z,5.80
2017-09-27T17:08:43.678Z,7.77
2017-09-27T17:11:13.035Z,4.23
2017-09-27T17:13:48.169Z,7.10
2017-09-27T17:16:17.302Z,5.60
2017-09-27T17:18:46.750Z,3.90
2017-09-27T17:21:21.996Z,8.20
2017-09-27T17:23:51.399Z,8.30
2017-09-27T17:26:22.370Z,14.70
2017-09-27T17:28:51.645Z,11.57
2017-09-27T17:31:22.649Z,8.00
2017-09-27T17:33:52.010Z,13.30
2017-09-27T17:36:21.106Z,5.97
2017-09-27T17:38:57.237Z,12.73
2017-09-27T17:41:32.544Z,7.93
2017-09-27T17:44:02.496Z,7.27
2017-09-27T17:46:39.039Z,5.10
2017-09-27T17:49:14.584Z,7.00
2017-09-27T17:51:43.701Z,5.23
2017-09-27T17:54:12.910Z,6.53
2017-09-27T17:56:42.497Z,11.83
2017-09-27T17:59:13.426Z,5.47
2017-09-27T18:01:42.502Z,8.20
2017-09-27T18:07:20.140Z,8.10
2017-09-27T18:09:54.914Z,8.07
2017-09-27T18:12:38.406Z,9.23
2017-09-27T18:15:13.404Z,8.70
2017-09-27T18:17:44.331Z,4.90
2017-09-27T18:20:13.497Z,3.90
2017-09-27T18:23:01.137Z,8.27
2017-09-27T18:25:30.336Z,15.70
2017-09-27T18:27:59.856Z,5.70
2017-09-27T18:30:30.292Z,6.47
2017-09-27T18:33:01.861Z,6.33
2017-09-27T18:35:37.186Z,4.30
2017-09-27T18:38:13.233Z,6.47
2017-09-27T18:40:42.350Z,5.50
2017-09-27T18:43:11.472Z,18.43
2017-09-27T18:45:40.605Z,10.47
2017-09-27T18:48:09.761Z,10.87
2017-09-27T18:50:38.874Z,16.00
2017-09-27T18:53:14.262Z,13.17
2017-09-27T18:55:43.827Z,15.40
2017-09-27T18:58:12.944Z,8.93
2017-09-27T19:00:42.851Z,6.63
2017-09-27T19:03:12.064Z,11.73
2017-09-27T19:05:41.573Z,16.17
2017-09-27T19:08:17.702Z,12.07
2017-09-27T19:10:47.089Z,7.13
2017-09-27T19:13:16.288Z,9.23
2017-09-27T19:15:45.415Z,11.70
2017-09-27T19:18:15.337Z,14.23
2017-09-27T19:20:44.464Z,8.73
2017-09-27T19:23:13.595Z,7.60
2017-09-27T19:25:42.907Z,6.10
2017-09-27T19:28:14.047Z,10.67
2017-09-27T19:30:43.199Z,13.50
2017-09-27T19:33:12.334Z,12.67
2017-09-27T19:35:54.298Z,8.00
2017-09-27T19:38:38.940Z,13.70
2017-09-27T19:41:08.089Z,19.80
2017-09-27T19:43:37.476Z,22.00
2017-09-27T19:46:06.893Z,9.63
2017-09-27T19:48:36.012Z,5.93
2017-09-27T19:51:05.153Z,19.63
2017-09-27T19:53:34.242Z,12.90
2017-09-27T19:56:16.382Z,22.03
2017-09-27T19:58:45.700Z,12.53
2017-09-27T20:01:27.213Z,31.37
2017-09-27T20:04:02.591Z,17.97
2017-09-27T20:06:37.925Z,12.30
2017-09-27T20:09:11.650Z,7.17
2017-09-27T20:11:47.507Z,5.40
2017-09-27T20:14:17.361Z,17.17
2017-09-27T20:16:46.701Z,13.37
2017-09-27T20:19:15.811Z,23.63
2017-09-27T20:21:52.325Z,8.03
2017-09-27T20:24:21.679Z,14.03
2017-09-27T20:26:50.977Z,8.17
2017-09-27T20:29:20.322Z,14.20
2017-09-27T20:31:49.432Z,8.40
2017-09-27T20:34:25.445Z,12.23
2017-09-27T20:36:57.741Z,15.43
2017-09-27T20:39:26.895Z,9.53
2017-09-27T20:41:59.208Z,11.30
2017-09-27T20:44:34.948Z,16.37
2017-09-27T20:47:04.348Z,13.30
2017-09-27T20:49:33.699Z,10.33
2017-09-27T20:52:03.326Z,15.70
2017-09-27T20:54:33.162Z,6.20
2017-09-27T20:57:02.714Z,12.60
2017-09-27T20:59:32.410Z,12.27
2017-09-27T21:02:01.622Z,19.37
2017-09-27T21:04:31.292Z,6.20
2017-09-27T21:07:00.793Z,12.03
2017-09-27T21:09:30.243Z,9.23
2017-09-27T21:12:06.382Z,6.40
2017-09-27T21:14:35.535Z,12.57
2017-09-27T21:17:04.739Z,13.57
2017-09-27T21:19:34.088Z,13.80
2017-09-27T21:22:03.447Z,12.60
2017-09-27T21:24:32.539Z,8.17
2017-09-27T21:27:01.706Z,11.97
2017-09-27T21:29:32.074Z,13.47
2017-09-27T21:32:01.604Z,10.50
2017-09-27T21:34:30.705Z,17.87
2017-09-27T21:37:07.817Z,15.80
2017-09-27T21:39:37.033Z,10.47
2017-09-27T21:42:16.373Z,10.73
2017-09-27T21:44:45.546Z,7.60
2017-09-27T21:47:26.864Z,9.53
2017-09-27T21:49:56.006Z,5.60
2017-09-27T21:52:25.131Z,7.53
2017-09-27T21:55:01.661Z,18.30
2017-09-27T21:57:30.841Z,7.90
2017-09-27T22:00:00.173Z,6.67
2017-09-27T22:02:29.540Z,11.60
2017-09-27T22:05:04.749Z,5.23
2017-09-27T22:07:33.885Z,7.40
2017-09-27T22:10:03.125Z,9.50
2017-09-27T22:12:32.225Z,6.20
2017-09-27T22:15:01.497Z,8.20
2017-09-27T22:17:30.623Z,12.73
2017-09-27T22:20:00.049Z,6.07
2017-09-27T22:22:29.385Z,11.13
2017-09-27T22:24:58.658Z,5.70
2017-09-27T22:27:27.759Z,9.40
2017-09-27T22:29:57.242Z,6.57
2017-09-27T22:32:28.097Z,5.87
2017-09-27T22:34:57.241Z,7.00
2017-09-27T22:37:27.779Z,7.20
2017-09-27T22:39:56.933Z,5.50
2017-09-27T22:42:26.038Z,5.40
2017-09-27T22:44:55.113Z,8.10
2017-09-27T22:47:24.254Z,9.27
2017-09-27T22:49:53.422Z,5.43
2017-09-27T22:52:22.689Z,8.43
2017-09-27T22:54:51.818Z,8.70
2017-09-27T22:57:35.981Z,6.90
2017-09-27T23:00:05.171Z,9.50
2017-09-27T23:02:34.437Z,8.20
2017-09-27T23:05:03.718Z,7.73
2017-09-27T23:07:38.889Z,6.53
2017-09-27T23:10:08.004Z,4.27
2017-09-27T23:12:37.638Z,8.47
2017-09-27T23:15:06.910Z,6.47
2017-09-27T23:17:36.001Z,9.03
2017-09-27T23:20:11.361Z,11.30
2017-09-27T23:22:40.519Z,10.40
2017-09-27T23:25:16.076Z,11.20
2017-09-27T23:27:45.212Z,8.80
2017-09-27T23:30:14.350Z,5.67
2017-09-27T23:32:56.958Z,5.63
2017-09-27T23:35:26.056Z,5.00
2017-09-27T23:37:55.201Z,7.37
2017-09-27T23:40:24.309Z,6.07
2017-09-27T23:42:53.496Z,6.70
2017-09-27T23:45:30.174Z,6.50
2017-09-27T23:48:06.021Z,7.10
2017-09-27T23:50:35.186Z,14.20
2017-09-27T23:53:04.356Z,4.23
2017-09-27T23:55:41.210Z,6.20
2017-09-27T23:58:10.338Z,7.90
